Time;durP1;ratioP1;P1;durP2;ratioP2;P2;SDS_P1;SDS_P2;PMS_P1;PMS_P2;Temp;Humidity;BMP_temperature;BMP_pressure;BME280_temperature;BME280_humidity;BME280_pressure;Samples;Min_cycle;Max_cycle;Signal;HPM_P1;HPM_P2
2022/06/25 00:02:06;;;;;;;18.42;16.52;;;19.10;99.90;;;;;;6178696;23;20013;-75
2022/06/25 00:07:16;;;;;;;18.38;15.77;;;19.00;99.90;;;;;;6152274;23;20040;-76
2022/06/25 00:09:44;;;;;;;17.60;15.00;;;19.00;99.90;;;;;;6152219;23;20099;-76
2022/06/25 00:14:54;;;;;;;17.95;15.82;;;19.00;99.90;;;;;;6178073;23;20554;-75
2022/06/25 00:17:20;;;;;;;18.67;14.20;;;19.00;99.90;;;;;;6180130;23;20167;-77
2022/06/25 00:19:46;;;;;;;18.40;14.13;;;19.00;99.90;;;;;;6179714;23;20027;-78
2022/06/25 00:22:12;;;;;;;15.82;14.23;;;18.90;99.90;;;;;;6178733;23;20100;-78
2022/06/25 00:24:37;;;;;;;19.42;15.20;;;19.00;99.90;;;;;;6178235;23;20377;-77
2022/06/25 00:27:03;;;;;;;18.48;15.07;;;18.90;99.90;;;;;;6177772;23;20021;-78
2022/06/25 00:29:29;;;;;;;15.30;13.70;;;18.90;99.90;;;;;;6151434;23;20021;-77
2022/06/25 00:31:55;;;;;;;15.85;14.25;;;18.90;99.90;;;;;;6181516;23;20024;-78
2022/06/25 00:34:20;;;;;;;16.42;14.73;;;18.90;99.90;;;;;;6152522;23;20032;-78
2022/06/25 00:36:46;;;;;;;17.35;13.85;;;18.80;99.90;;;;;;6182853;23;20052;-78
2022/06/25 00:39:12;;;;;;;16.40;14.75;;;18.80;99.90;;;;;;6182457;23;20013;-78
2022/06/25 00:41:37;;;;;;;20.05;16.85;;;18.80;99.90;;;;;;6181301;23;20851;-78
2022/06/25 00:44:12;;;;;;;17.52;15.77;;;18.80;99.90;;;;;;6181034;23;20013;-78
2022/06/25 00:46:37;;;;;;;16.98;14.77;;;18.80;99.90;;;;;;6157020;23;20024;-77
2022/06/25 00:49:04;;;;;;;17.88;16.05;;;18.80;99.90;;;;;;6182551;23;20017;-77
2022/06/25 00:51:33;;;;;;;18.05;16.10;;;18.80;99.90;;;;;;6184138;23;20099;-77
2022/06/25 00:54:03;;;;;;;18.58;15.43;;;18.80;99.90;;;;;;6182684;23;20009;-74
2022/06/25 00:56:33;;;;;;;20.30;18.00;;;18.80;99.90;;;;;;6181239;23;20021;-75
2022/06/25 00:59:03;;;;;;;21.60;17.58;;;18.70;99.90;;;;;;6182356;23;20024;-74
2022/06/25 01:01:32;;;;;;;25.15;17.55;;;18.70;99.90;;;;;;6182910;23;20009;-75
2022/06/25 01:04:00;;;;;;;19.38;16.83;;;18.70;99.90;;;;;;6156139;23;20103;-76
2022/06/25 01:06:28;;;;;;;20.77;17.40;;;18.70;99.90;;;;;;6183848;23;20104;-75
2022/06/25 01:08:57;;;;;;;22.73;18.85;;;18.60;99.90;;;;;;6183068;23;20013;-75
2022/06/25 01:11:26;;;;;;;21.45;17.35;;;18.60;99.90;;;;;;6182047;23;20059;-75
2022/06/25 01:13:52;;;;;;;27.30;19.85;;;18.60;99.90;;;;;;6180462;23;20025;-75
2022/06/25 01:16:22;;;;;;;20.88;15.45;;;18.60;99.90;;;;;;6179688;23;20061;-75
2022/06/25 01:18:48;;;;;;;22.48;16.92;;;18.60;99.90;;;;;;6182043;23;20017;-75
2022/06/25 01:21:14;;;;;;;19.55;16.77;;;18.50;99.90;;;;;;6156374;23;20031;-75
2022/06/25 01:23:40;;;;;;;19.55;16.73;;;18.50;99.90;;;;;;6180497;23;20092;-75
2022/06/25 01:26:09;;;;;;;21.80;17.05;;;18.60;99.90;;;;;;6181436;23;20023;-75
2022/06/25 01:28:35;;;;;;;22.95;18.40;;;18.40;99.90;;;;;;6155117;23;20076;-76
2022/06/25 01:31:00;;;;;;;22.17;16.60;;;18.50;99.90;;;;;;6180442;23;20025;-75
2022/06/25 01:33:26;;;;;;;18.15;16.25;;;18.50;99.90;;;;;;6155189;23;20619;-76
2022/06/25 01:35:51;;;;;;;20.90;17.35;;;18.50;99.90;;;;;;6156671;23;20020;-76
2022/06/25 01:38:17;;;;;;;21.27;17.25;;;18.40;99.90;;;;;;6179984;23;20040;-76
2022/06/25 01:40:43;;;;;;;21.27;16.58;;;18.50;99.90;;;;;;6181235;23;20024;-76
2022/06/25 01:43:08;;;;;;;19.27;17.05;;;18.40;99.90;;;;;;6153217;23;20088;-76
2022/06/25 01:45:36;;;;;;;21.90;17.58;;;18.40;99.90;;;;;;6179373;23;20035;-76
2022/06/25 01:48:04;;;;;;;20.27;17.52;;;18.40;99.90;;;;;;6154067;23;20025;-76
2022/06/25 01:50:34;;;;;;;21.75;17.45;;;18.40;99.90;;;;;;6179510;23;20354;-75
2022/06/25 01:53:00;;;;;;;21.80;16.55;;;18.40;99.90;;;;;;6179025;23;20017;-76
2022/06/25 01:55:26;;;;;;;20.13;17.17;;;18.40;99.90;;;;;;6181444;23;20083;-76
2022/06/25 01:57:52;;;;;;;20.05;16.67;;;18.40;99.90;;;;;;6153765;23;20025;-76
2022/06/25 02:00:25;;;;;;;19.40;17.40;;;18.40;99.90;;;;;;6179629;23;20088;-75
2022/06/25 02:02:52;;;;;;;17.92;15.73;;;18.30;99.90;;;;;;6178879;23;20031;-76
2022/06/25 02:05:56;;;;;;;22.42;17.02;;;18.30;99.90;;;;;;6153807;23;20020;-76
2022/06/25 02:08:06;;;;;;;16.58;14.88;;;18.30;99.90;;;;;;6178777;23;20028;-76
2022/06/25 02:10:32;;;;;;;19.30;16.70;;;18.30;99.90;;;;;;6180556;23;20017;-76
2022/06/25 02:12:58;;;;;;;20.90;14.07;;;18.30;99.90;;;;;;6152204;23;20037;-76
2022/06/25 02:15:26;;;;;;;21.60;16.50;;;18.20;99.90;;;;;;6180462;23;20052;-76
2022/06/25 02:17:52;;;;;;;16.40;14.27;;;18.20;99.90;;;;;;6152881;23;20017;-76
2022/06/25 02:20:20;;;;;;;16.40;14.35;;;18.20;99.90;;;;;;6178659;23;20021;-77
2022/06/25 02:22:45;;;;;;;19.25;15.07;;;18.10;99.90;;;;;;6179280;23;20096;-76
2022/06/25 02:25:13;;;;;;;17.70;15.45;;;18.10;99.90;;;;;;6154614;23;20557;-76
2022/06/25 02:27:39;;;;;;;15.55;13.00;;;18.10;99.90;;;;;;6177961;23;20104;-76
2022/06/25 02:30:05;;;;;;;13.90;12.50;;;18.10;99.90;;;;;;6177618;23;20122;-76
2022/06/25 02:32:31;;;;;;;14.15;12.73;;;18.10;99.90;;;;;;6177979;23;20025;-76
2022/06/25 02:34:57;;;;;;;14.43;12.80;;;18.10;99.90;;;;;;6179849;23;20013;-76
2022/06/25 02:37:22;;;;;;;16.23;13.48;;;18.10;99.90;;;;;;6151865;23;20097;-76
2022/06/25 02:39:48;;;;;;;19.60;14.00;;;18.10;99.90;;;;;;6180169;23;20031;-76
2022/06/25 02:42:16;;;;;;;19.95;13.70;;;18.10;99.90;;;;;;6180105;23;20022;-76
2022/06/25 02:44:42;;;;;;;13.98;12.02;;;18.10;99.90;;;;;;6152661;23;20024;-76
2022/06/25 02:47:08;;;;;;;14.98;12.52;;;18.10;99.90;;;;;;6179816;23;20032;-75
2022/06/25 02:49:33;;;;;;;15.90;11.73;;;18.00;99.90;;;;;;6179320;23;20013;-75
2022/06/25 02:51:59;;;;;;;15.35;12.73;;;18.00;99.90;;;;;;6178003;23;20017;-75
2022/06/25 02:54:24;;;;;;;15.45;12.95;;;18.00;99.90;;;;;;6153004;23;20433;-76
2022/06/25 02:59:42;;;;;;;16.48;12.35;;;18.00;99.90;;;;;;6152663;23;20056;-76
2022/06/25 03:02:08;;;;;;;18.65;12.35;;;17.90;99.90;;;;;;6176138;23;20171;-76
2022/06/25 03:04:34;;;;;;;14.68;12.35;;;18.00;99.90;;;;;;6153091;23;20651;-76
2022/06/25 03:06:59;;;;;;;17.63;12.05;;;18.00;99.90;;;;;;6179312;23;20013;-76
2022/06/25 03:09:25;;;;;;;15.02;11.68;;;18.00;99.90;;;;;;6151280;23;20075;-76
2022/06/25 03:11:51;;;;;;;16.65;14.10;;;17.90;99.90;;;;;;6153412;23;20020;-75
2022/06/25 03:14:17;;;;;;;16.73;12.93;;;17.90;99.90;;;;;;6152603;23;20121;-75
2022/06/25 03:16:43;;;;;;;15.43;12.20;;;17.90;99.90;;;;;;6179472;23;20063;-76
2022/06/25 03:19:09;;;;;;;20.13;13.98;;;17.90;99.90;;;;;;6152869;23;20021;-76
2022/06/25 03:21:35;;;;;;;15.48;12.80;;;17.90;99.90;;;;;;6153103;23;20345;-76
2022/06/25 03:24:01;;;;;;;15.95;12.27;;;17.80;99.90;;;;;;6176225;23;20013;-76
2022/06/25 03:26:26;;;;;;;19.08;13.18;;;17.80;99.90;;;;;;6175593;23;20021;-76
2022/06/25 03:28:55;;;;;;;16.30;13.45;;;17.80;99.90;;;;;;6151451;23;20080;-76
2022/06/25 03:31:24;;;;;;;13.50;11.88;;;17.80;99.90;;;;;;6178591;23;20017;-76
2022/06/25 03:33:50;;;;;;;14.45;12.00;;;17.70;99.90;;;;;;6152659;23;20017;-76
2022/06/25 03:36:15;;;;;;;12.93;11.43;;;17.70;99.90;;;;;;6180041;23;20021;-76
2022/06/25 03:38:41;;;;;;;13.20;11.80;;;17.70;99.90;;;;;;6150204;23;20021;-76
2022/06/25 03:43:51;;;;;;;12.77;11.35;;;17.70;99.90;;;;;;6179600;23;20268;-75
2022/06/25 03:46:17;;;;;;;14.48;10.15;;;17.80;99.90;;;;;;6151450;23;20075;-76
2022/06/25 03:48:42;;;;;;;13.70;12.30;;;17.70;99.90;;;;;;6178586;23;20027;-75
2022/06/25 03:51:08;;;;;;;14.57;12.40;;;17.80;99.90;;;;;;6179946;23;20009;-75
2022/06/25 03:53:33;;;;;;;12.30;11.00;;;17.80;99.90;;;;;;6151656;23;20028;-75
2022/06/25 03:55:59;;;;;;;16.98;11.88;;;17.80;99.90;;;;;;6153354;23;20017;-75
2022/06/25 03:58:25;;;;;;;13.27;11.00;;;17.80;99.90;;;;;;6177908;23;20129;-76
2022/06/25 04:00:53;;;;;;;11.85;10.40;;;17.80;99.90;;;;;;6178496;23;20095;-75
2022/06/25 04:03:19;;;;;;;12.00;10.15;;;17.80;99.90;;;;;;6151321;23;20055;-75
2022/06/25 04:05:45;;;;;;;15.35;10.10;;;17.80;99.90;;;;;;6179774;23;20017;-75
2022/06/25 04:08:10;;;;;;;11.85;10.02;;;17.80;99.90;;;;;;6151728;23;20183;-76
2022/06/25 04:10:36;;;;;;;13.40;9.85;;;17.90;99.90;;;;;;6152861;23;20013;-75
2022/06/25 04:13:02;;;;;;;12.27;9.98;;;17.90;99.90;;;;;;6176711;23;20061;-75
2022/06/25 04:15:28;;;;;;;12.65;9.50;;;17.90;99.90;;;;;;6177528;23;20104;-76
2022/06/25 04:17:53;;;;;;;15.13;9.88;;;17.90;99.90;;;;;;6152630;23;20017;-75
2022/06/25 04:20:22;;;;;;;11.52;10.18;;;17.90;99.90;;;;;;6151934;23;20551;-74
2022/06/25 04:22:48;;;;;;;11.98;8.55;;;17.90;99.90;;;;;;6178963;23;20116;-76
2022/06/25 04:25:16;;;;;;;12.27;9.63;;;17.90;99.90;;;;;;6152590;23;20116;-76
2022/06/25 04:30:26;;;;;;;11.15;8.90;;;17.90;99.90;;;;;;6178240;23;20032;-75
2022/06/25 04:32:52;;;;;;;12.70;9.25;;;17.80;99.90;;;;;;6152419;23;20025;-75
2022/06/25 04:35:17;;;;;;;12.13;9.70;;;17.80;99.90;;;;;;6152417;23;20104;-76
2022/06/25 04:37:43;;;;;;;11.35;9.80;;;17.70;99.90;;;;;;6179418;23;20020;-75
2022/06/25 04:40:09;;;;;;;11.15;9.75;;;17.60;99.90;;;;;;6180389;23;20017;-75
2022/06/25 04:42:34;;;;;;;17.27;10.32;;;17.70;99.90;;;;;;6176457;23;20104;-75
2022/06/25 04:45:00;;;;;;;12.32;11.00;;;17.70;99.90;;;;;;6179333;23;20414;-75
2022/06/25 04:47:26;;;;;;;11.98;10.05;;;17.60;99.90;;;;;;6151813;23;20129;-76
2022/06/25 04:49:52;;;;;;;12.68;10.10;;;17.70;99.90;;;;;;6178857;23;20009;-76
2022/06/25 04:52:18;;;;;;;11.18;9.50;;;17.70;99.90;;;;;;6178610;23;20401;-76
2022/06/25 04:54:43;;;;;;;13.07;9.07;;;17.70;99.90;;;;;;6151352;23;20100;-75
2022/06/25 04:57:09;;;;;;;12.25;9.10;;;17.80;99.90;;;;;;6152785;23;20059;-74
2022/06/25 04:59:35;;;;;;;11.68;9.75;;;17.80;99.90;;;;;;6178544;23;20059;-75
2022/06/25 05:02:00;;;;;;;13.38;8.63;;;17.90;99.90;;;;;;6150834;23;20059;-75
2022/06/25 05:04:26;;;;;;;10.85;8.95;;;17.80;99.90;;;;;;6177673;23;20455;-75
2022/06/25 05:06:51;;;;;;;9.77;8.77;;;17.90;99.90;;;;;;6179132;23;20099;-75
2022/06/25 05:09:18;;;;;;;10.55;8.73;;;17.90;99.90;;;;;;6177576;23;20158;-75
2022/06/25 05:11:43;;;;;;;11.38;9.15;;;17.90;99.90;;;;;;6153536;23;20104;-75
2022/06/25 05:14:09;;;;;;;10.70;8.30;;;17.90;99.90;;;;;;6178331;23;20013;-75
2022/06/25 05:16:38;;;;;;;15.02;10.00;;;18.00;99.90;;;;;;6153319;23;20023;-76
2022/06/25 05:19:03;;;;;;;12.70;8.57;;;18.00;99.90;;;;;;6180962;23;20056;-75
2022/06/25 05:21:29;;;;;;;10.63;8.27;;;18.00;99.90;;;;;;6154765;23;20024;-75
2022/06/25 05:23:57;;;;;;;9.63;8.63;;;18.00;99.90;;;;;;6176642;23;20217;-75
2022/06/25 05:26:23;;;;;;;12.82;8.57;;;18.10;99.90;;;;;;6154276;23;20530;-75
2022/06/25 05:28:48;;;;;;;9.93;7.90;;;18.10;99.90;;;;;;6151333;23;20053;-76
2022/06/25 05:31:14;;;;;;;11.27;8.00;;;18.20;99.90;;;;;;6152140;23;20020;-75
2022/06/25 05:33:39;;;;;;;12.90;8.85;;;18.10;99.90;;;;;;6181435;23;20020;-75
2022/06/25 05:36:05;;;;;;;8.80;7.50;;;18.20;99.90;;;;;;6155222;23;20017;-77
2022/06/25 05:38:31;;;;;;;12.20;7.65;;;18.20;99.90;;;;;;6179773;23;20036;-75
2022/06/25 05:40:59;;;;;;;10.85;8.15;;;18.20;99.90;;;;;;6182113;23;20017;-76
2022/06/25 05:43:28;;;;;;;12.23;8.80;;;18.20;99.90;;;;;;6180676;23;20051;-75
2022/06/25 05:45:53;;;;;;;12.27;8.25;;;18.30;99.90;;;;;;6152222;23;20337;-75
2022/06/25 05:48:19;;;;;;;10.75;7.75;;;18.40;99.90;;;;;;6181123;23;20020;-74
2022/06/25 05:50:44;;;;;;;9.38;7.85;;;18.40;99.90;;;;;;6181306;23;20013;-76
2022/06/25 05:53:10;;;;;;;8.95;7.40;;;18.40;99.90;;;;;;6152507;23;20294;-75
2022/06/25 05:55:36;;;;;;;9.63;7.53;;;18.50;99.90;;;;;;6150915;23;20079;-76
2022/06/25 05:58:01;;;;;;;14.07;8.50;;;18.50;99.90;;;;;;6179122;23;20021;-77
2022/06/25 06:00:27;;;;;;;9.93;7.70;;;18.60;99.90;;;;;;6180055;23;20021;-76
2022/06/25 06:02:52;;;;;;;10.88;7.35;;;18.60;99.90;;;;;;6180793;23;20071;-75
2022/06/25 06:05:18;;;;;;;8.27;7.32;;;18.70;99.90;;;;;;6180837;23;20025;-76
2022/06/25 06:07:44;;;;;;;10.30;8.13;;;18.60;99.90;;;;;;6178182;23;20025;-76
2022/06/25 06:10:10;;;;;;;8.93;7.30;;;18.70;99.90;;;;;;6180439;23;20021;-76
2022/06/25 06:12:36;;;;;;;15.35;8.10;;;18.70;99.90;;;;;;6177851;23;20020;-75
2022/06/25 06:15:02;;;;;;;13.07;7.70;;;18.80;99.90;;;;;;6182311;23;20024;-75
2022/06/25 06:17:27;;;;;;;12.55;7.70;;;18.80;99.90;;;;;;6181457;23;20013;-75
2022/06/25 06:19:55;;;;;;;11.45;6.55;;;18.80;99.90;;;;;;6153188;23;20422;-75
2022/06/25 06:22:21;;;;;;;9.52;7.28;;;18.90;99.90;;;;;;6178088;23;20063;-76
2022/06/25 06:24:46;;;;;;;8.73;7.30;;;19.10;99.90;;;;;;6177414;23;20021;-77
2022/06/25 06:27:12;;;;;;;9.52;6.63;;;19.00;99.90;;;;;;6151593;23;20055;-76
2022/06/25 06:29:41;;;;;;;9.13;6.63;;;19.00;99.90;;;;;;6179042;23;20075;-75
2022/06/25 06:32:07;;;;;;;12.07;7.57;;;19.10;99.90;;;;;;6154032;23;20458;-76
2022/06/25 06:34:32;;;;;;;15.48;7.43;;;19.10;99.90;;;;;;6177718;23;20021;-75
2022/06/25 06:36:58;;;;;;;13.70;7.63;;;19.10;99.90;;;;;;6154162;23;20005;-76
2022/06/25 06:39:24;;;;;;;11.02;7.70;;;19.20;99.90;;;;;;6180251;23;20446;-74
2022/06/25 06:41:49;;;;;;;7.63;6.60;;;19.20;99.90;;;;;;6178080;23;20020;-74
2022/06/25 06:44:15;;;;;;;18.80;6.85;;;19.20;99.90;;;;;;6179157;23;20035;-74
2022/06/25 06:46:40;;;;;;;12.38;6.45;;;19.30;99.90;;;;;;6181044;23;20035;-75
2022/06/25 06:49:06;;;;;;;10.98;6.75;;;19.40;99.90;;;;;;6179383;23;20057;-75
2022/06/25 06:51:32;;;;;;;8.60;6.45;;;19.40;99.90;;;;;;6152626;23;20022;-74
2022/06/25 06:54:00;;;;;;;10.63;6.13;;;19.50;99.90;;;;;;6151743;23;20426;-74
2022/06/25 06:56:25;;;;;;;10.00;6.15;;;19.50;99.90;;;;;;6178990;23;20017;-74
2022/06/25 06:58:51;;;;;;;8.55;6.47;;;19.60;99.90;;;;;;6151788;23;20100;-74
2022/06/25 07:01:16;;;;;;;12.07;7.05;;;19.60;99.90;;;;;;6177505;23;20295;-73
2022/06/25 07:03:42;;;;;;;11.25;6.38;;;19.70;99.90;;;;;;6178897;23;20071;-76
2022/06/25 07:06:08;;;;;;;12.70;6.78;;;19.70;99.90;;;;;;6179258;23;20017;-77
2022/06/25 07:08:34;;;;;;;9.30;6.53;;;19.80;99.90;;;;;;6177680;23;20373;-76
2022/06/25 07:10:59;;;;;;;10.73;6.32;;;19.80;99.90;;;;;;6179431;23;20036;-75
2022/06/25 07:13:25;;;;;;;9.68;6.30;;;19.80;99.90;;;;;;6150118;23;20033;-75
2022/06/25 07:15:50;;;;;;;9.55;6.53;;;19.90;99.90;;;;;;6178354;23;20414;-74
2022/06/25 07:18:16;;;;;;;10.80;6.22;;;19.90;99.90;;;;;;6179970;23;20013;-75
2022/06/25 07:20:42;;;;;;;6.47;5.00;;;20.00;99.90;;;;;;6180642;23;20082;-75
2022/06/25 07:23:08;;;;;;;10.80;5.28;;;20.00;99.90;;;;;;6148901;23;20017;-74
2022/06/25 07:25:34;;;;;;;7.63;5.85;;;20.00;99.90;;;;;;6151433;23;20445;-75
2022/06/25 07:28:00;;;;;;;8.48;5.20;;;20.10;99.90;;;;;;6152318;23;20021;-75
2022/06/25 07:30:25;;;;;;;6.65;4.88;;;20.20;99.90;;;;;;6179616;23;20310;-75
2022/06/25 07:32:51;;;;;;;6.68;5.25;;;20.20;99.90;;;;;;6153328;23;20461;-76
2022/06/25 07:35:17;;;;;;;6.63;5.78;;;20.30;99.90;;;;;;6180470;23;20009;-76
2022/06/25 07:37:42;;;;;;;7.45;5.07;;;20.30;99.90;;;;;;6177956;23;20016;-76
2022/06/25 07:40:09;;;;;;;8.80;4.78;;;20.30;99.90;;;;;;6153679;23;20052;-76
2022/06/25 07:42:34;;;;;;;7.30;5.13;;;20.40;99.90;;;;;;6178710;23;20027;-75
2022/06/25 07:45:00;;;;;;;7.68;5.05;;;20.40;99.90;;;;;;6153169;23;20029;-75
2022/06/25 07:47:26;;;;;;;6.82;4.70;;;20.40;99.90;;;;;;6179938;23;20371;-75
2022/06/25 07:52:38;;;;;;;5.90;4.30;;;20.50;99.90;;;;;;6150403;23;20025;-75
2022/06/25 07:55:05;;;;;;;9.88;4.78;;;20.50;99.90;;;;;;6153463;23;20079;-75
2022/06/25 07:57:33;;;;;;;12.30;4.45;;;20.60;99.90;;;;;;6178597;23;20020;-75
2022/06/25 07:59:59;;;;;;;7.30;4.40;;;20.60;99.90;;;;;;6179366;23;20028;-75
2022/06/25 08:02:24;;;;;;;11.50;4.20;;;20.70;99.90;;;;;;6179063;23;20017;-75
2022/06/25 08:04:50;;;;;;;6.40;3.42;;;20.70;99.90;;;;;;6178650;23;20016;-75
2022/06/25 08:07:19;;;;;;;4.70;2.92;;;20.70;99.90;;;;;;6152946;23;20083;-75
2022/06/25 08:09:45;;;;;;;8.48;3.80;;;20.80;99.90;;;;;;6178258;23;20106;-74
2022/06/25 08:12:11;;;;;;;10.65;3.28;;;20.80;99.90;;;;;;6178907;23;20048;-78
2022/06/25 08:14:36;;;;;;;7.03;3.15;;;20.90;99.90;;;;;;6178625;23;20422;-74
2022/06/25 08:17:02;;;;;;;9.60;3.00;;;21.00;99.90;;;;;;6180582;23;20123;-75
2022/06/25 08:19:31;;;;;;;6.07;3.53;;;21.10;99.90;;;;;;6177494;23;20092;-74
2022/06/25 08:21:57;;;;;;;9.70;3.10;;;21.00;99.90;;;;;;6150842;23;20048;-73
2022/06/25 08:24:23;;;;;;;6.63;2.97;;;21.00;99.90;;;;;;6151294;23;20227;-74
2022/06/25 08:26:49;;;;;;;4.45;2.63;;;21.10;99.90;;;;;;6149922;23;20021;-74
2022/06/25 08:29:15;;;;;;;6.18;2.83;;;21.20;99.90;;;;;;6175400;23;20084;-73
2022/06/25 08:31:40;;;;;;;6.65;3.08;;;21.30;99.90;;;;;;6152513;23;20107;-76
2022/06/25 08:34:06;;;;;;;3.72;2.50;;;21.30;99.90;;;;;;6178609;23;20012;-75
2022/06/25 08:36:32;;;;;;;7.78;2.42;;;21.40;99.90;;;;;;6179482;23;20024;-76
2022/06/25 08:38:57;;;;;;;4.80;2.13;;;21.40;99.90;;;;;;6179471;23;20364;-75
2022/06/25 08:41:23;;;;;;;5.15;2.40;;;21.50;99.90;;;;;;6152003;23;20268;-75
2022/06/25 08:43:48;;;;;;;3.35;1.90;;;21.60;99.90;;;;;;6179264;23;20052;-75
2022/06/25 08:46:15;;;;;;;5.90;1.85;;;21.60;99.90;;;;;;6153455;23;20016;-74
2022/06/25 08:48:46;;;;;;;3.78;1.90;;;21.70;99.90;;;;;;6152043;23;20056;-74
2022/06/25 08:51:13;;;;;;;6.53;2.33;;;21.70;99.90;;;;;;6182903;23;20013;-74
2022/06/25 08:53:39;;;;;;;7.30;1.90;;;21.80;99.90;;;;;;6154498;23;20397;-73
2022/06/25 08:56:05;;;;;;;6.25;1.88;;;21.80;99.90;;;;;;6181916;23;20120;-74
2022/06/25 08:58:31;;;;;;;3.63;2.08;;;21.80;99.90;;;;;;6154378;23;20407;-75
2022/06/25 09:00:57;;;;;;;7.53;2.35;;;21.90;99.90;;;;;;6155353;23;20039;-75
2022/06/25 09:03:26;;;;;;;6.55;1.75;;;22.10;99.90;;;;;;6181236;23;20365;-74
2022/06/25 09:05:52;;;;;;;5.75;2.35;;;21.90;99.90;;;;;;6182451;23;20119;-77
2022/06/25 09:08:17;;;;;;;5.38;1.98;;;21.90;99.90;;;;;;6180000;23;20092;-74
2022/06/25 09:10:45;;;;;;;7.78;2.80;;;21.90;99.90;;;;;;6181270;23;20025;-75
2022/06/25 09:13:12;;;;;;;5.05;2.05;;;22.00;99.90;;;;;;6153794;23;20024;-75
2022/06/25 09:15:41;;;;;;;5.50;1.95;;;22.00;99.90;;;;;;6177508;23;20412;-76
2022/06/25 09:18:12;;;;;;;5.68;1.83;;;22.10;99.90;;;;;;6151568;23;20351;-75
2022/06/25 09:20:56;;;;;;;;;;;22.10;99.90;;;;;;6153871;23;20028;-75
2022/06/25 09:23:21;;;;;;;4.60;2.22;;;22.10;99.90;;;;;;6152234;23;19967;-75
2022/06/25 09:26:00;;;;;;;3.65;1.67;;;22.10;99.90;;;;;;6152177;23;20025;-74
2022/06/25 09:28:47;;;;;;;6.20;1.88;;;22.20;99.90;;;;;;6178354;23;20025;-75
2022/06/25 09:31:33;;;;;;;3.63;1.85;;;22.20;99.90;;;;;;6178477;23;20268;-75
2022/06/25 09:34:09;;;;;;;2.78;1.30;;;22.20;99.90;;;;;;6179322;23;20048;-75
2022/06/25 09:36:36;;;;;;;9.30;1.63;;;22.20;99.90;;;;;;6152210;23;20100;-76
2022/06/25 09:39:05;;;;;;;3.33;1.85;;;22.30;99.90;;;;;;6180033;23;20009;-75
2022/06/25 09:41:53;;;;;;;4.00;1.38;;;22.30;99.90;;;;;;6181008;23;20088;-74
2022/06/25 09:44:19;;;;;;;6.60;1.65;;;22.30;99.90;;;;;;6152101;23;20021;-75
2022/06/25 09:46:58;;;;;;;3.83;2.15;;;22.30;99.90;;;;;;6154267;23;20021;-77
2022/06/25 09:49:25;;;;;;;4.93;1.58;;;22.30;99.90;;;;;;6179260;23;20021;-75
2022/06/25 09:52:02;;;;;;;10.65;1.60;;;22.40;99.90;;;;;;6179513;23;20017;-75
2022/06/25 09:54:28;;;;;;;4.10;1.70;;;22.50;99.90;;;;;;6152154;23;20017;-75
2022/06/25 09:56:54;;;;;;;6.05;1.80;;;22.50;99.90;;;;;;6152929;23;20019;-75
2022/06/25 09:59:23;;;;;;;4.30;1.52;;;22.50;99.90;;;;;;6150704;23;20534;-74
2022/06/25 10:01:49;;;;;;;3.53;1.58;;;22.70;99.90;;;;;;6153331;23;20028;-73
2022/06/25 10:04:15;;;;;;;6.05;1.92;;;22.80;99.90;;;;;;6180139;23;20020;-76
2022/06/25 10:06:42;;;;;;;4.00;1.23;;;22.80;99.90;;;;;;6153979;23;20029;-74
2022/06/25 10:09:10;;;;;;;3.03;1.27;;;22.80;99.90;;;;;;6179359;23;20028;-74
2022/06/25 10:11:38;;;;;;;5.05;1.42;;;22.80;99.90;;;;;;6151574;23;20025;-73
2022/06/25 10:14:05;;;;;;;3.22;1.45;;;22.80;99.90;;;;;;6180572;23;20040;-75
2022/06/25 10:16:30;;;;;;;3.58;1.20;;;22.80;99.90;;;;;;6154110;23;20096;-74
2022/06/25 10:18:57;;;;;;;4.60;1.33;;;22.90;99.90;;;;;;6152728;23;20056;-73
2022/06/25 10:21:27;;;;;;;3.58;1.30;;;23.00;99.90;;;;;;6154077;23;20100;-74
2022/06/25 10:23:59;;;;;;;3.42;1.50;;;22.90;99.90;;;;;;6180113;23;20017;-73
2022/06/25 10:26:25;;;;;;;4.95;1.30;;;23.00;99.90;;;;;;6179506;23;20091;-73
2022/06/25 10:28:51;;;;;;;4.35;1.50;;;23.00;99.90;;;;;;6180502;23;20017;-74
2022/06/25 10:31:18;;;;;;;2.83;1.25;;;23.00;99.90;;;;;;6179843;23;20016;-74
2022/06/25 10:34:04;;;;;;;6.68;1.20;;;23.00;99.90;;;;;;6178371;23;20391;-74
2022/06/25 10:36:42;;;;;;;5.13;1.35;;;23.00;99.90;;;;;;6179042;23;20021;-73
2022/06/25 10:39:22;;;;;;;6.38;1.75;;;23.10;99.90;;;;;;6153245;23;20028;-74
2022/06/25 10:45:04;;;;;;;5.65;1.35;;;23.10;99.90;;;;;;6180671;23;20024;-73
2022/06/25 10:47:41;;;;;;;2.67;1.40;;;23.00;99.90;;;;;;6152642;23;20047;-73
2022/06/25 10:50:25;;;;;;;5.82;1.48;;;23.10;99.90;;;;;;6176899;23;20350;-74
2022/06/25 10:55:29;;;;;;;5.63;1.48;;;23.20;99.90;;;;;;6150851;23;20076;-74
2022/06/25 10:58:14;;;;;;;4.63;1.40;;;23.30;99.90;;;;;;6180242;23;20064;-74
2022/06/25 11:00:54;;;;;;;2.72;1.48;;;23.50;99.90;;;;;;6179613;23;20576;-74
2022/06/25 11:03:32;;;;;;;5.13;2.00;;;23.50;99.90;;;;;;6154009;23;20025;-74
2022/06/25 11:06:00;;;;;;;3.88;1.45;;;23.60;99.90;;;;;;6152962;23;20036;-74
2022/06/25 11:08:36;;;;;;;6.60;1.30;;;23.70;99.90;;;;;;6152464;23;20460;-74
2022/06/25 11:11:05;;;;;;;2.17;1.00;;;23.70;99.90;;;;;;6181324;23;20013;-75
2022/06/25 11:13:32;;;;;;;3.35;1.10;;;23.50;99.90;;;;;;6178847;23;20013;-74
2022/06/25 11:15:58;;;;;;;3.63;1.15;;;23.60;99.90;;;;;;6179748;23;20019;-75
2022/06/25 11:18:23;;;;;;;4.47;1.10;;;23.60;99.90;;;;;;6179993;23;20049;-74
2022/06/25 11:20:49;;;;;;;4.03;1.40;;;23.50;99.90;;;;;;6181186;23;20085;-74
2022/06/25 11:23:16;;;;;;;4.97;1.05;;;23.50;99.90;;;;;;6152891;23;20017;-74
2022/06/25 11:28:53;;;;;;;2.03;1.23;;;23.30;99.90;;;;;;6179048;23;20052;-73
2022/06/25 11:31:23;;;;;;;4.07;1.50;;;23.20;99.90;;;;;;6150393;23;20018;-74
2022/06/25 11:33:51;;;;;;;2.13;1.15;;;23.10;99.90;;;;;;6181041;23;20055;-73
2022/06/25 11:36:17;;;;;;;2.50;1.10;;;23.10;99.90;;;;;;6153462;23;20009;-73
2022/06/25 11:38:50;;;;;;;2.92;1.50;;;23.00;99.90;;;;;;6180207;23;20130;-75
2022/06/25 11:41:26;;;;;;;5.30;1.83;;;22.90;99.90;;;;;;6181031;23;20110;-73
2022/06/25 11:43:56;;;;;;;5.68;1.30;;;22.90;99.90;;;;;;6152612;23;20063;-73
2022/06/25 11:46:24;;;;;;;6.53;1.33;;;22.90;99.90;;;;;;6180261;23;20462;-73
2022/06/25 11:48:51;;;;;;;6.75;1.77;;;22.90;99.90;;;;;;6154137;23;20024;-73
2022/06/25 11:51:24;;;;;;;5.15;1.73;;;22.90;99.90;;;;;;6153260;23;20403;-73
2022/06/25 11:53:53;;;;;;;4.57;0.90;;;22.90;99.90;;;;;;6153515;23;20121;-73
2022/06/25 11:56:19;;;;;;;4.47;1.42;;;22.90;99.90;;;;;;6181015;23;20399;-73
2022/06/25 11:58:45;;;;;;;4.88;1.02;;;22.90;99.90;;;;;;6179203;23;20015;-73
2022/06/25 12:01:11;;;;;;;5.47;1.38;;;23.00;99.90;;;;;;6153968;23;20334;-73
2022/06/25 12:03:37;;;;;;;5.72;1.35;;;23.00;99.90;;;;;;6179598;23;20021;-73
2022/06/25 12:06:04;;;;;;;3.03;1.27;;;23.20;99.90;;;;;;6180899;23;20049;-73
2022/06/25 12:08:30;;;;;;;3.35;1.20;;;23.30;99.90;;;;;;6179910;23;20086;-73
2022/06/25 12:10:59;;;;;;;7.88;1.33;;;23.50;99.90;;;;;;6153457;23;20416;-73
2022/06/25 12:13:30;;;;;;;2.10;1.10;;;23.70;99.90;;;;;;6179377;23;20028;-73
2022/06/25 12:16:00;;;;;;;3.08;1.00;;;23.70;99.90;;;;;;6181130;23;20124;-74
2022/06/25 12:18:34;;;;;;;3.63;1.20;;;23.70;99.90;;;;;;6152797;23;20020;-74
2022/06/25 12:21:00;;;;;;;2.33;1.33;;;23.70;99.90;;;;;;6180779;23;20024;-73
2022/06/25 12:23:26;;;;;;;6.50;1.50;;;23.60;99.90;;;;;;6179387;23;20087;-73
2022/06/25 12:25:54;;;;;;;3.22;1.10;;;23.60;99.90;;;;;;6153081;23;20309;-72
2022/06/25 12:28:36;;;;;;;4.47;1.40;;;23.50;99.90;;;;;;6152621;23;20024;-73
2022/06/25 12:31:09;;;;;;;1.85;1.02;;;23.40;99.90;;;;;;6180000;23;20462;-73
2022/06/25 12:33:35;;;;;;;6.28;1.27;;;23.30;99.90;;;;;;6152554;23;20020;-74
2022/06/25 12:36:00;;;;;;;2.22;1.00;;;23.30;99.90;;;;;;6180327;23;20017;-73
2022/06/25 12:38:26;;;;;;;3.30;1.08;;;23.20;99.90;;;;;;6152705;23;20020;-72
2022/06/25 12:40:52;;;;;;;5.68;1.55;;;23.10;99.90;;;;;;6179944;23;20009;-72
2022/06/25 12:43:18;;;;;;;7.05;1.55;;;23.00;99.90;;;;;;6179710;23;20020;-73
2022/06/25 12:45:47;;;;;;;4.00;1.55;;;23.00;99.90;;;;;;6153344;23;20096;-72
2022/06/25 12:48:24;;;;;;;2.28;1.30;;;23.00;99.90;;;;;;6180328;23;20099;-73
2022/06/25 12:50:50;;;;;;;5.97;1.08;;;22.90;99.90;;;;;;6153440;23;20425;-73
2022/06/25 12:53:16;;;;;;;4.28;1.63;;;22.80;99.90;;;;;;6152324;23;20013;-72
2022/06/25 12:55:47;;;;;;;4.25;1.95;;;22.70;99.90;;;;;;6153936;23;20013;-73
2022/06/25 12:58:18;;;;;;;4.43;1.50;;;22.70;99.90;;;;;;6152767;23;20501;-73
2022/06/25 13:00:46;;;;;;;7.40;2.17;;;22.70;99.90;;;;;;6179499;23;20024;-72
2022/06/25 13:03:12;;;;;;;5.03;1.60;;;22.50;99.90;;;;;;6180440;23;20558;-73
2022/06/25 13:05:38;;;;;;;3.47;1.65;;;22.40;99.90;;;;;;6153876;23;20326;-72